Time;durP1;ratioP1;P1;durP2;ratioP2;P2;SDS_P1;SDS_P2;PMS_P1;PMS_P2;Temp;Humidity;BMP_temperature;BMP_pressure;BME280_temperature;BME280_humidity;BME280_pressure;Samples;Min_cycle;Max_cycle;Signal;HPM_P1;HPM_P2
2022/02/24 00:00:47;;;;;;;90.38;36.90;;;;;;;-1.47;100.00;101466.88;1727930;82;21482;-91
2022/02/24 00:03:12;;;;;;;83.95;36.05;;;;;;;-1.54;100.00;101473.77;1728364;82;21006;-91
2022/02/24 00:05:38;;;;;;;75.90;31.87;;;;;;;-1.58;100.00;101472.93;1728313;82;21930;-92
2022/02/24 00:08:04;;;;;;;77.55;31.70;;;;;;;-1.62;100.00;101473.25;1728303;82;20886;-92
2022/02/24 00:10:31;;;;;;;70.37;31.12;;;;;;;-1.64;100.00;101470.42;1728175;82;20906;-92
2022/02/24 00:12:56;;;;;;;82.72;33.13;;;;;;;-1.67;100.00;101468.92;1728420;82;21145;-92
2022/02/24 00:15:22;;;;;;;75.97;31.52;;;;;;;-1.69;100.00;101468.74;1728542;82;20918;-91
2022/02/24 00:17:48;;;;;;;71.30;30.82;;;;;;;-1.73;100.00;101471.37;1728420;82;21302;-92
2022/02/24 00:20:14;;;;;;;67.97;30.20;;;;;;;-1.79;100.00;101470.66;1728275;82;20989;-93
2022/02/24 00:22:42;;;;;;;66.90;28.87;;;;;;;-1.86;100.00;101463.36;1728425;82;21490;-91
2022/02/24 00:25:09;;;;;;;66.17;27.95;;;;;;;-1.90;100.00;101468.63;1728419;82;21506;-90
2022/02/24 00:27:36;;;;;;;65.83;27.80;;;;;;;-1.93;100.00;101476.05;1728242;82;21088;-91
2022/02/24 00:30:05;;;;;;;66.97;29.20;;;;;;;-1.95;100.00;101470.08;1728326;82;21886;-92
2022/02/24 00:32:31;;;;;;;67.15;27.67;;;;;;;-1.95;100.00;101477.51;1728289;82;21097;-91
2022/02/24 00:34:57;;;;;;;58.45;25.80;;;;;;;-1.98;100.00;101476.50;1725132;82;21541;-90
2022/02/24 00:37:23;;;;;;;61.95;26.57;;;;;;;-1.99;100.00;101480.14;1728146;82;20983;-91
2022/02/24 00:39:49;;;;;;;63.60;28.52;;;;;;;-2.04;100.00;101486.36;1728234;82;21767;-91
2022/02/24 00:42:15;;;;;;;69.80;27.93;;;;;;;-2.10;100.00;101486.98;1728224;82;21171;-90
2022/02/24 00:44:41;;;;;;;56.77;25.72;;;;;;;-2.14;100.00;101482.52;1728180;82;21104;-91
2022/02/24 00:47:07;;;;;;;59.85;25.90;;;;;;;-2.13;100.00;101484.16;1728309;82;21057;-91
2022/02/24 00:49:34;;;;;;;61.48;25.48;;;;;;;-2.12;100.00;101478.38;1725093;82;21078;-91
2022/02/24 00:52:00;;;;;;;55.78;25.20;;;;;;;-2.14;100.00;101483.83;1727990;82;21101;-90
2022/02/24 00:54:26;;;;;;;56.05;26.00;;;;;;;-2.14;100.00;101484.33;1728094;82;21131;-90
2022/02/24 00:56:52;;;;;;;60.00;26.07;;;;;;;-2.20;100.00;101484.45;1727940;82;20859;-92
2022/02/24 00:59:17;;;;;;;58.65;24.20;;;;;;;-2.23;100.00;101481.30;1728103;82;20962;-91
2022/02/24 01:01:43;;;;;;;57.25;25.30;;;;;;;-2.29;100.00;101490.16;1727968;82;20890;-90
2022/02/24 01:04:10;;;;;;;56.33;25.92;;;;;;;-2.31;100.00;101492.12;1727923;82;20939;-91
2022/02/24 01:06:36;;;;;;;58.08;26.93;;;;;;;-2.32;100.00;101497.56;1727656;82;21128;-93
2022/02/24 01:09:02;;;;;;;66.70;28.27;;;;;;;-2.35;100.00;101496.05;1727888;82;20969;-93
2022/02/24 01:11:28;;;;;;;60.80;26.57;;;;;;;-2.40;100.00;101493.53;1727948;83;22310;-92
2022/02/24 01:13:54;;;;;;;59.33;25.30;;;;;;;-2.44;100.00;101499.61;1727856;82;21149;-91
2022/02/24 01:16:20;;;;;;;63.63;27.87;;;;;;;-2.46;100.00;101498.92;1728109;83;20989;-91
2022/02/24 01:18:46;;;;;;;66.82;27.10;;;;;;;-2.48;100.00;101501.37;1728081;82;21069;-92
2022/02/24 01:21:12;;;;;;;58.28;25.82;;;;;;;-2.50;100.00;101501.52;1727970;82;21007;-91
2022/02/24 01:23:38;;;;;;;62.03;27.65;;;;;;;-2.51;100.00;101499.86;1728402;82;20907;-91
2022/02/24 01:26:04;;;;;;;66.57;28.45;;;;;;;-2.52;100.00;101499.53;1728346;82;21005;-91
2022/02/24 01:28:30;;;;;;;63.60;28.73;;;;;;;-2.52;100.00;101496.89;1728252;82;20886;-92
2022/02/24 01:30:56;;;;;;;63.63;27.73;;;;;;;-2.53;100.00;101495.22;1728063;82;21482;-91
2022/02/24 01:33:22;;;;;;;68.17;27.95;;;;;;;-2.55;100.00;101494.06;1728249;82;21130;-91
2022/02/24 01:35:48;;;;;;;68.28;28.98;;;;;;;-2.54;100.00;101503.63;1728058;82;20986;-91
2022/02/24 01:38:14;;;;;;;64.90;28.10;;;;;;;-2.56;100.00;101502.97;1728017;82;21529;-90
2022/02/24 01:40:40;;;;;;;76.10;31.12;;;;;;;-2.58;100.00;101502.28;1728693;82;20918;-91
2022/02/24 01:43:06;;;;;;;70.87;30.95;;;;;;;-2.60;100.00;101505.55;1728186;82;21086;-91
2022/02/24 01:45:32;;;;;;;83.80;35.10;;;;;;;-2.60;100.00;101503.41;1728196;82;21189;-91
2022/02/24 01:47:58;;;;;;;84.70;36.03;;;;;;;-2.59;100.00;101505.92;1728263;82;20930;-91
2022/02/24 01:50:28;;;;;;;101.12;41.10;;;;;;;-2.59;100.00;101505.06;1727632;82;20983;-94
2022/02/24 01:52:55;;;;;;;104.38;43.08;;;;;;;-2.58;100.00;101500.14;1727731;82;21116;-93
2022/02/24 01:55:21;;;;;;;105.27;42.73;;;;;;;-2.57;100.00;101507.89;1727939;82;21117;-92
2022/02/24 01:57:49;;;;;;;102.85;40.17;;;;;;;-2.57;100.00;101512.34;1727874;82;21020;-92
2022/02/24 02:00:15;;;;;;;103.17;41.00;;;;;;;-2.58;100.00;101509.38;1727844;82;21017;-94
2022/02/24 02:02:41;;;;;;;89.65;36.77;;;;;;;-2.60;100.00;101512.64;1728076;82;21022;-91
2022/02/24 02:05:08;;;;;;;90.70;38.23;;;;;;;-2.61;100.00;101520.23;1728166;82;20875;-91
2022/02/24 02:07:35;;;;;;;107.00;41.20;;;;;;;-2.63;100.00;101518.22;1727834;82;21198;-93
2022/02/24 02:10:00;;;;;;;111.95;45.05;;;;;;;-2.63;100.00;101524.82;1728227;82;21057;-93
2022/02/24 02:12:27;;;;;;;108.27;43.20;;;;;;;-2.64;100.00;101529.27;1727944;82;20970;-93
2022/02/24 02:14:53;;;;;;;119.93;46.73;;;;;;;-2.62;100.00;101529.11;1728190;82;21102;-93
2022/02/24 02:17:19;;;;;;;116.85;44.93;;;;;;;-2.60;100.00;101532.44;1727892;82;21018;-92
2022/02/24 02:19:45;;;;;;;118.25;46.23;;;;;;;-2.61;100.00;101535.56;1728085;82;21629;-92
2022/02/24 02:22:11;;;;;;;116.62;45.85;;;;;;;-2.59;100.00;101545.48;1727996;82;20890;-92
2022/02/24 02:24:37;;;;;;;106.10;43.70;;;;;;;-2.60;100.00;101543.81;1728183;82;21577;-92
2022/02/24 02:27:03;;;;;;;102.27;42.53;;;;;;;-2.60;100.00;101558.81;1728133;82;20962;-92
2022/02/24 02:29:29;;;;;;;97.55;40.70;;;;;;;-2.61;100.00;101550.08;1728108;82;21555;-92
2022/02/24 02:31:55;;;;;;;100.87;40.12;;;;;;;-2.61;100.00;101559.31;1728074;82;21032;-92
2022/02/24 02:34:21;;;;;;;93.75;38.30;;;;;;;-2.61;100.00;101559.31;1727805;82;22190;-90
2022/02/24 02:36:48;;;;;;;99.03;39.78;;;;;;;-2.61;100.00;101557.99;1727935;82;20898;-93
2022/02/24 02:39:16;;;;;;;103.50;39.78;;;;;;;-2.63;100.00;101563.08;1728128;82;21007;-91
2022/02/24 02:41:45;;;;;;;89.28;36.45;;;;;;;-2.64;100.00;101564.06;1727908;82;20998;-90
2022/02/24 02:44:13;;;;;;;89.92;35.95;;;;;;;-2.69;100.00;101567.62;1728099;82;21080;-90
2022/02/24 02:46:40;;;;;;;90.35;36.93;;;;;;;-2.74;100.00;101565.42;1727495;82;21025;-90
2022/02/24 02:49:06;;;;;;;97.17;38.90;;;;;;;-2.75;100.00;101576.97;1728002;82;21093;-90
2022/02/24 02:51:32;;;;;;;96.13;39.00;;;;;;;-2.80;100.00;101578.72;1727989;82;20977;-90
2022/02/24 02:53:58;;;;;;;99.40;38.83;;;;;;;-2.80;100.00;101577.89;1728301;82;21042;-89
2022/02/24 02:56:24;;;;;;;101.02;40.10;;;;;;;-2.80;100.00;101576.57;1727862;82;21802;-90
2022/02/24 02:58:50;;;;;;;93.85;38.70;;;;;;;-2.82;100.00;101575.91;1728230;82;21084;-89
2022/02/24 03:01:17;;;;;;;98.45;37.25;;;;;;;-2.83;100.00;101584.78;1727829;82;21042;-90
2022/02/24 03:03:43;;;;;;;85.05;34.25;;;;;;;-2.85;100.00;101590.22;1727898;82;21565;-90
2022/02/24 03:06:09;;;;;;;85.62;35.20;;;;;;;-2.87;100.00;101588.70;1728186;82;21130;-90
2022/02/24 03:08:36;;;;;;;91.12;37.58;;;;;;;-2.88;100.00;101579.97;1727738;82;22016;-90
2022/02/24 03:11:02;;;;;;;88.55;35.00;;;;;;;-2.89;100.00;101586.69;1727991;82;20999;-90
2022/02/24 03:13:28;;;;;;;91.12;34.30;;;;;;;-2.90;100.00;101588.50;1728434;82;21117;-92
2022/02/24 03:15:54;;;;;;;94.60;37.42;;;;;;;-2.90;100.00;101590.31;1727675;82;20938;-89
2022/02/24 03:18:20;;;;;;;89.72;34.53;;;;;;;-2.90;100.00;101592.95;1727969;82;21029;-90
2022/02/24 03:20:46;;;;;;;75.97;31.42;;;;;;;-2.91;100.00;101585.53;1727513;82;21093;-90
2022/02/24 03:23:12;;;;;;;73.57;30.32;;;;;;;-2.92;100.00;101586.98;1728113;82;21054;-89
2022/02/24 03:25:39;;;;;;;81.37;32.75;;;;;;;-2.95;100.00;101590.73;1727892;82;21020;-90
2022/02/24 03:28:06;;;;;;;79.12;30.88;;;;;;;-2.97;100.00;101586.95;1731764;81;21645;-89
2022/02/24 03:30:34;;;;;;;69.25;29.45;;;;;;;-2.98;100.00;101589.72;1727187;82;21041;-89
2022/02/24 03:33:02;;;;;;;65.12;27.80;;;;;;;-2.97;100.00;101599.30;1727591;82;21131;-89
2022/02/24 03:35:29;;;;;;;69.80;29.87;;;;;;;-3.00;100.00;101592.98;1727990;82;20974;-89
2022/02/24 03:37:55;;;;;;;57.15;26.00;;;;;;;-3.04;100.00;101592.45;1728028;82;21038;-90
2022/02/24 03:40:21;;;;;;;60.58;26.35;;;;;;;-3.11;100.00;101592.70;1728223;82;21084;-90
2022/02/24 03:42:49;;;;;;;57.95;25.82;;;;;;;-3.13;100.00;101589.37;1728060;82;21119;-90
2022/02/24 03:45:15;;;;;;;69.00;26.97;;;;;;;-3.15;100.00;101587.84;1728004;82;21081;-92
2022/02/24 03:47:41;;;;;;;67.12;29.15;;;;;;;-3.20;100.00;101589.63;1728001;82;21573;-91
2022/02/24 03:50:08;;;;;;;59.33;25.57;;;;;;;-3.22;100.00;101593.70;1728146;82;21014;-91
2022/02/24 03:52:34;;;;;;;62.23;27.52;;;;;;;-3.24;100.00;101600.91;1724545;82;21080;-91
2022/02/24 03:55:01;;;;;;;62.85;27.17;;;;;;;-3.28;100.00;101603.52;1732069;81;21043;-92
2022/02/24 03:57:27;;;;;;;64.65;25.97;;;;;;;-3.28;100.00;101600.88;1727937;82;21098;-91
2022/02/24 03:59:53;;;;;;;62.33;26.50;;;;;;;-3.28;100.00;101603.52;1727771;82;21061;-91
2022/02/24 04:02:19;;;;;;;55.30;24.60;;;;;;;-3.32;100.00;101603.47;1728193;82;22778;-91
2022/02/24 04:04:45;;;;;;;57.67;22.77;;;;;;;-3.32;100.00;101611.86;1728229;82;20843;-91
2022/02/24 04:07:11;;;;;;;54.77;23.75;;;;;;;-3.37;100.00;101610.14;1727921;83;21005;-91
2022/02/24 04:09:37;;;;;;;53.02;24.10;;;;;;;-3.43;100.00;101608.41;1728148;82;21431;-91
2022/02/24 04:12:05;;;;;;;59.73;24.57;;;;;;;-3.41;100.00;101610.92;1727919;82;21084;-91
2022/02/24 04:14:31;;;;;;;50.38;23.00;;;;;;;-3.42;100.00;101611.38;1728067;82;21084;-91
2022/02/24 04:16:59;;;;;;;56.02;23.95;;;;;;;-3.43;100.00;101615.49;1728220;82;21497;-91
2022/02/24 04:19:26;;;;;;;53.63;23.20;;;;;;;-3.45;100.00;101619.57;1727775;82;21483;-91
2022/02/24 04:21:53;;;;;;;60.15;24.60;;;;;;;-3.46;100.00;101624.51;1728356;82;21046;-91
2022/02/24 04:24:19;;;;;;;56.33;23.12;;;;;;;-3.47;100.00;101626.81;1728338;82;20947;-90
2022/02/24 04:26:45;;;;;;;60.12;24.05;;;;;;;-3.48;100.00;101630.89;1728190;82;21570;-90
2022/02/24 04:29:11;;;;;;;52.80;22.65;;;;;;;-3.49;100.00;101641.09;1728131;82;20856;-90
2022/02/24 04:31:37;;;;;;;53.02;22.67;;;;;;;-3.50;100.00;101640.73;1728335;82;21530;-90
2022/02/24 04:34:07;;;;;;;53.78;24.00;;;;;;;-3.51;100.00;101641.71;1707759;82;21162;-90
2022/02/24 04:36:33;;;;;;;55.30;22.93;;;;;;;-3.49;100.00;101651.14;1640263;87;21660;-91
2022/02/24 04:38:58;;;;;;;55.98;23.47;;;;;;;-3.48;100.00;101650.65;1640413;87;21031;-90
2022/02/24 04:41:24;;;;;;;64.92;24.65;;;;;;;-3.47;100.00;101653.61;1640112;87;21651;-90
2022/02/24 04:43:50;;;;;;;52.53;24.15;;;;;;;-3.49;100.00;101657.73;1640297;87;20887;-90
2022/02/24 04:46:16;;;;;;;65.97;24.72;;;;;;;-3.47;100.00;101654.94;1636266;86;21740;-90
2022/02/24 04:48:43;;;;;;;57.45;23.65;;;;;;;-3.46;100.00;101660.08;1626123;88;20966;-90
2022/02/24 04:51:09;;;;;;;65.52;24.70;;;;;;;-3.48;100.00;101658.06;1626279;88;21097;-90
2022/02/24 04:53:35;;;;;;;59.95;24.80;;;;;;;-3.45;100.00;101672.76;1626076;88;21575;-90
2022/02/24 04:56:01;;;;;;;57.88;24.20;;;;;;;-3.43;100.00;101674.78;1626102;88;21169;-89
2022/02/24 04:58:27;;;;;;;53.13;22.95;;;;;;;-3.40;100.00;101675.81;1626390;88;21279;-90
2022/02/24 05:00:53;;;;;;;61.95;25.25;;;;;;;-3.34;100.00;101680.51;1622585;88;20902;-90
2022/02/24 05:03:21;;;;;;;62.50;24.82;;;;;;;-3.27;100.00;101675.49;1626306;88;21045;-90
2022/02/24 05:05:47;;;;;;;60.80;24.75;;;;;;;-3.19;100.00;101675.62;1574816;91;21591;-89
2022/02/24 05:08:13;;;;;;;59.35;25.88;;;;;;;-3.08;100.00;101679.90;1574688;91;20916;-90
2022/02/24 05:10:39;;;;;;;59.75;24.05;;;;;;;-2.98;100.00;101680.19;1574776;91;20947;-89
2022/02/24 05:13:05;;;;;;;68.33;24.77;;;;;;;-2.87;100.00;101687.59;1574896;91;20999;-90
2022/02/24 05:15:31;;;;;;;71.30;25.12;;;;;;;-2.73;100.00;101690.26;1574877;91;21591;-90
2022/02/24 05:17:56;;;;;;;58.52;22.48;;;;;;;-2.43;100.00;101692.59;1574770;91;21004;-90
2022/02/24 05:20:22;;;;;;;59.67;21.97;;;;;;;-1.04;100.00;101690.33;1574969;91;21120;-90
2022/02/24 05:22:49;;;;;;;52.10;20.45;;;;;;;0.87;100.00;101686.42;1574626;91;21205;-91
2022/02/24 05:25:15;;;;;;;51.53;19.98;;;;;;;2.39;100.00;101692.66;1574733;91;21125;-90
2022/02/24 05:27:44;;;;;;;44.77;19.23;;;;;;;3.80;100.00;101696.30;1574753;91;21597;-90
2022/02/24 05:30:14;;;;;;;49.33;20.62;;;;;;;5.26;100.00;101692.69;1574854;91;21614;-89
2022/02/24 05:32:44;;;;;;;54.98;23.10;;;;;;;6.50;100.00;101695.98;1584949;87;21121;-88
2022/02/24 05:35:13;;;;;;;56.60;23.45;;;;;;;7.41;100.00;101691.22;1628676;88;21042;-88
2022/02/24 05:37:39;;;;;;;74.20;31.93;;;;;;;8.35;100.00;101688.34;1628659;88;21123;-89
2022/02/24 05:40:06;;;;;;;111.05;47.48;;;;;;;9.05;100.00;101690.84;1629016;88;20958;-91
2022/02/24 05:42:32;;;;;;;112.52;50.83;;;;;;;9.81;100.00;101693.30;1629046;88;21121;-91
2022/02/24 05:44:58;;;;;;;91.17;41.15;;;;;;;10.63;100.00;101693.55;1629162;88;21066;-90
2022/02/24 05:47:27;;;;;;;75.85;33.08;;;;;;;10.76;100.00;101697.89;1641261;87;21612;-92
2022/02/24 05:49:53;;;;;;;69.87;32.13;;;;;;;10.90;100.00;101695.25;1647469;85;21094;-92
2022/02/24 05:52:19;;;;;;;68.87;31.23;;;;;;;11.37;100.00;101674.44;1647597;85;21042;-93
2022/02/24 05:54:47;;;;;;;68.83;31.75;;;;;;;11.92;100.00;101695.27;1647926;85;21033;-91
2022/02/24 05:57:13;;;;;;;62.45;29.42;;;;;;;12.08;100.00;101703.92;1647576;85;21093;-90
2022/02/24 05:59:39;;;;;;;54.08;25.80;;;;;;;12.15;96.67;101703.80;1647757;85;21096;-92
2022/02/24 06:02:05;;;;;;;55.23;25.10;;;;;;;12.10;93.63;101705.86;1672207;82;21162;-91
2022/02/24 06:04:32;;;;;;;65.55;28.55;;;;;;;11.95;86.55;101705.05;1738238;81;21104;-93
2022/02/24 06:06:58;;;;;;;53.17;25.15;;;;;;;11.51;84.28;101710.09;1708768;81;21054;-92
2022/02/24 06:09:24;;;;;;;44.67;20.35;;;;;;;10.46;76.88;101716.31;1738120;81;21060;-92
2022/02/24 06:11:50;;;;;;;46.53;19.80;;;;;;;10.46;76.88;101716.31;1738512;81;21187;-92
2022/02/24 06:14:19;;;;;;;45.43;19.37;;;;;;;10.31;83.08;101704.62;1738212;81;20989;-93
2022/02/24 06:16:45;;;;;;;45.65;21.40;;;;;;;11.31;96.21;101716.41;1738308;81;21041;-91
2022/02/24 06:19:15;;;;;;;46.88;21.57;;;;;;;12.97;88.76;101718.13;1738159;81;21471;-91
2022/02/24 06:21:41;;;;;;;46.13;21.02;;;;;;;14.36;90.50;101722.78;1738532;81;21562;-90
2022/02/24 06:24:09;;;;;;;37.05;18.25;;;;;;;15.57;74.26;101721.72;1738467;81;21177;-91
2022/02/24 06:26:36;;;;;;;30.92;16.12;;;;;;;16.39;68.97;101724.67;1721820;82;21171;-91
2022/02/24 06:29:02;;;;;;;28.85;15.60;;;;;;;17.47;59.47;101729.73;1713552;81;21108;-96
2022/02/24 06:31:34;;;;;;;25.60;14.07;;;;;;;17.43;54.04;101732.72;1704871;82;21104;-92
2022/02/24 06:33:55;;;;;;;25.15;12.98;;;;;;;17.61;52.24;101732.65;1687458;84;21786;-91
2022/02/24 06:36:21;;;;;;;25.32;13.25;;;;;;;18.04;51.08;101729.48;1702268;84;21121;-91
2022/02/24 06:38:47;;;;;;;21.75;11.12;;;;;;;18.41;49.01;101738.48;1708054;84;21060;-92
2022/02/24 06:41:13;;;;;;;26.17;11.73;;;;;;;18.63;46.48;101738.06;1708279;83;21001;-91
2022/02/24 06:43:39;;;;;;;28.65;12.05;;;;;;;19.20;47.79;101745.19;1707440;82;20886;-91
2022/02/24 06:46:05;;;;;;;21.57;11.78;;;;;;;20.54;47.72;101743.19;1707888;82;20928;-90
2022/02/24 06:48:31;;;;;;;25.30;11.60;;;;;;;20.79;43.00;101747.41;1706111;82;21532;-90
2022/02/24 06:50:57;;;;;;;19.87;10.58;;;;;;;20.75;41.51;101745.58;1707862;84;21731;-91
2022/02/24 06:53:23;;;;;;;18.92;9.90;;;;;;;20.80;40.37;101749.05;1709672;81;20999;-91
2022/02/24 06:55:49;;;;;;;26.02;9.63;;;;;;;20.92;40.27;101747.77;1702503;82;21731;-91
2022/02/24 06:58:18;;;;;;;23.52;10.28;;;;;;;21.45;38.12;101751.45;1701583;82;21008;-91
2022/02/24 07:00:44;;;;;;;20.52;10.90;;;;;;;21.38;38.55;101751.02;1700486;82;21976;-92
2022/02/24 07:03:10;;;;;;;23.45;10.23;;;;;;;22.28;36.61;101757.62;1710320;82;21583;-91
2022/02/24 07:05:36;;;;;;;16.05;9.28;;;;;;;21.95;37.19;101751.48;1705814;82;21515;-91
2022/02/24 07:08:02;;;;;;;19.73;10.00;;;;;;;22.61;35.11;101753.26;1706494;83;20890;-91
2022/02/24 07:10:28;;;;;;;15.48;9.50;;;;;;;;;;1707879;84;21100;-91
2022/02/24 07:12:54;;;;;;;16.35;9.30;;;;;;;23.32;35.32;101757.45;1669020;86;21828;-91
2022/02/24 07:15:27;;;;;;;15.53;9.20;;;;;;;23.70;33.82;101753.64;1690848;84;20919;-91
2022/02/24 07:17:53;;;;;;;12.20;7.97;;;;;;;23.90;32.07;101756.92;1673854;85;21524;-90
2022/02/24 07:20:19;;;;;;;14.73;8.48;;;;;;;22.93;31.74;101759.60;1638805;87;20967;-91
2022/02/24 07:22:46;;;;;;;11.33;7.92;;;;;;;22.56;32.28;101756.13;1668388;86;21108;-91
2022/02/24 07:25:13;;;;;;;13.83;7.47;;;;;;;23.03;31.86;101756.06;1669047;86;21183;-90
2022/02/24 07:27:40;;;;;;;12.03;8.10;;;;;;;23.05;30.39;101754.36;1668609;86;22207;-91
2022/02/24 07:30:07;;;;;;;12.78;7.85;;;;;;;22.89;30.74;101756.67;1665169;84;21015;-90
2022/02/24 07:32:35;;;;;;;13.62;7.65;;;;;;;22.81;30.05;101755.48;1673686;85;21147;-90
2022/02/24 07:35:01;;;;;;;10.03;6.78;;;;;;;22.54;30.33;101758.39;1668682;86;21022;-89
2022/02/24 07:37:27;;;;;;;10.30;6.97;;;;;;;22.64;29.59;101766.37;1668695;85;22518;-89
2022/02/24 07:39:54;;;;;;;10.60;7.25;;;;;;;22.29;29.20;101766.66;1668771;85;21022;-88
2022/02/24 07:42:20;;;;;;;9.13;6.50;;;;;;;22.25;29.08;101765.11;1690948;84;21764;-88
2022/02/24 07:44:47;;;;;;;9.45;6.40;;;;;;;21.99;27.98;101764.27;1674084;85;21073;-89
2022/02/24 07:47:14;;;;;;;9.05;6.55;;;;;;;21.39;28.00;101769.13;1665456;85;21081;-89
2022/02/24 07:50:13;;;;;;;10.80;6.05;;;;;;;21.59;28.42;101770.09;1633396;87;21081;-88
2022/02/24 07:52:30;;;;;;;8.83;6.08;;;;;;;22.07;28.64;101774.29;1668711;85;21020;-90
2022/02/24 07:55:01;;;;;;;10.08;5.90;;;;;;;22.75;27.89;101774.61;1669955;85;20935;-90
2022/02/24 07:57:28;;;;;;;10.18;6.53;;;;;;;22.27;26.74;101764.25;1675956;83;21016;-88
2022/02/24 07:59:54;;;;;;;10.18;5.80;;;;;;;21.71;27.61;101775.06;1691468;84;21044;-88
2022/02/24 08:02:20;;;;;;;10.13;5.37;;;;;;;22.02;27.29;101775.77;1697200;83;20965;-88
2022/02/24 08:04:46;;;;;;;9.70;5.90;;;;;;;22.36;28.30;101780.23;1702320;83;21116;-88
2022/02/24 08:07:12;;;;;;;8.25;5.50;;;;;;;22.88;27.44;101779.23;1702082;84;20938;-88
2022/02/24 08:09:38;;;;;;;12.47;6.22;;;;;;;22.94;26.94;101784.58;1701985;83;20902;-89
2022/02/24 08:14:49;;;;;;;10.08;5.58;;;;;;;23.64;25.30;101787.92;1702218;83;21112;-87
2022/02/24 08:17:15;;;;;;;8.88;5.30;;;;;;;23.32;26.53;101778.09;1702035;83;21693;-88
2022/02/24 08:19:42;;;;;;;10.05;4.53;;;;;;;23.95;25.48;101789.83;1702349;83;20938;-87
2022/02/24 08:22:08;;;;;;;8.95;5.10;;;;;;;23.18;25.58;101786.47;1701923;83;21014;-88
2022/02/24 08:24:49;;;;;;;7.72;5.00;;;;;;;23.40;24.41;101786.95;1702102;83;21009;-87
2022/02/24 08:27:15;;;;;;;10.08;5.33;;;;;;;23.09;23.94;101774.05;1700592;83;21292;-89
2022/02/24 08:29:45;;;;;;;9.80;5.90;;;;;;;22.54;23.54;101793.55;1701755;83;21573;-88
2022/02/24 08:32:11;;;;;;;9.35;5.37;;;;;;;21.65;26.20;101781.74;1687066;84;21040;-88
2022/02/24 08:34:37;;;;;;;9.60;5.45;;;;;;;22.54;25.92;101792.17;1690223;84;20956;-87
2022/02/24 08:37:04;;;;;;;8.05;5.05;;;;;;;22.49;25.83;101795.59;1690489;84;20993;-87
2022/02/24 08:40:08;;;;;;;11.30;4.45;;;;;;;23.00;24.64;101792.98;1690143;84;22131;-87
2022/02/24 08:42:35;;;;;;;9.95;4.97;;;;;;;22.75;24.68;101798.55;1606550;86;21068;-89
2022/02/24 08:45:01;;;;;;;9.03;4.45;;;;;;;22.80;23.82;101799.23;1613373;86;21120;-88
2022/02/24 08:47:27;;;;;;;9.53;4.70;;;;;;;22.43;23.95;101790.22;1608778;86;21152;-88
2022/02/24 08:49:54;;;;;;;7.37;4.37;;;;;;;21.99;25.00;101786.23;1574824;89;20940;-87
2022/02/24 08:52:20;;;;;;;9.55;4.00;;;;;;;22.91;25.71;101794.27;1552727;89;21558;-87
2022/02/24 08:54:46;;;;;;;6.70;3.72;;;;;;;22.94;23.33;101781.27;1567853;90;21019;-87
2022/02/24 08:57:13;;;;;;;11.20;4.08;;;;;;;22.43;25.48;101791.59;1567751;90;21122;-86
2022/02/24 08:59:39;;;;;;;5.55;3.75;;;;;;;23.30;24.37;101781.17;1567615;91;21595;-85
2022/02/24 09:02:05;;;;;;;8.25;3.33;;;;;;;24.01;24.04;101790.72;1548667;89;21199;-87
2022/02/24 09:04:32;;;;;;;6.70;3.98;;;;;;;22.86;23.66;101784.80;1588048;89;21116;-86
2022/02/24 09:06:58;;;;;;;7.00;3.58;;;;;;;20.57;24.33;101791.08;1573840;90;21061;-86
2022/02/24 09:09:25;;;;;;;11.57;3.80;;;;;;;18.35;25.66;101787.39;1573721;90;21047;-85
2022/02/24 09:11:51;;;;;;;7.65;2.95;;;;;;;16.92;26.75;101797.39;1573731;90;21112;-85
2022/02/24 09:14:18;;;;;;;6.83;2.85;;;;;;;15.65;27.65;101796.77;1573766;90;21600;-86
2022/02/24 09:16:44;;;;;;;9.00;3.33;;;;;;;14.67;28.49;101805.82;1573880;90;21073;-85
2022/02/24 09:19:12;;;;;;;8.00;3.25;;;;;;;13.10;30.04;101797.59;1573668;90;21470;-87
2022/02/24 09:21:39;;;;;;;6.22;3.47;;;;;;;12.37;31.34;101797.16;1573747;90;21102;-85
2022/02/24 09:24:06;;;;;;;7.10;3.33;;;;;;;11.54;32.56;101805.98;1573767;90;21128;-86
2022/02/24 09:26:33;;;;;;;8.98;3.75;;;;;;;10.83;34.77;101806.47;1573512;90;21125;-87
2022/02/24 09:29:02;;;;;;;6.67;3.20;;;;;;;10.16;35.83;101806.02;1573277;90;21751;-85
2022/02/24 09:31:28;;;;;;;13.98;4.08;;;;;;;9.72;36.88;101804.48;1574048;90;21056;-86
2022/02/24 09:33:54;;;;;;;9.33;3.47;;;;;;;9.46;37.04;101801.02;1573549;90;21572;-87
2022/02/24 09:36:20;;;;;;;9.83;3.25;;;;;;;9.36;37.50;101797.22;1573621;90;20919;-85
2022/02/24 09:38:46;;;;;;;8.08;2.70;;;;;;;9.00;37.77;101791.53;1598544;84;21573;-84
2022/02/24 09:41:14;;;;;;;9.20;3.42;;;;;;;8.95;38.08;101786.51;1644329;85;21295;-85
2022/02/24 09:43:41;;;;;;;10.98;4.00;;;;;;;9.00;38.52;101785.31;1673311;84;21133;-84
2022/02/24 09:46:11;;;;;;;11.08;4.10;;;;;;;9.03;39.37;101794.28;1673650;84;21524;-86
2022/02/24 09:48:44;;;;;;;11.12;3.37;;;;;;;8.96;38.64;101798.38;1688317;83;21037;-86
2022/02/24 09:51:14;;;;;;;8.60;3.25;;;;;;;8.86;39.19;101791.34;1695766;83;21029;-85
2022/02/24 09:53:42;;;;;;;13.55;3.75;;;;;;;8.79;39.14;101790.02;1695829;83;21172;-86
2022/02/24 09:56:29;;;;;;;9.38;3.72;;;;;;;8.80;39.80;101790.87;1695594;83;21045;-86
2022/02/24 09:58:54;;;;;;;8.40;3.60;;;;;;;8.85;39.65;101792.36;1695133;83;21081;-86
2022/02/24 10:01:20;;;;;;;8.43;3.60;;;;;;;8.83;39.83;101792.59;1695851;83;21002;-86
2022/02/24 10:04:01;;;;;;;7.17;3.42;;;;;;;8.84;39.56;101793.41;1695803;83;21109;-84
2022/02/24 10:06:44;;;;;;;8.80;3.37;;;;;;;8.83;39.53;101795.80;1695087;83;21243;-86
2022/02/24 10:09:15;;;;;;;7.20;3.52;;;;;;;8.74;40.24;101790.39;1695555;83;21061;-87
2022/02/24 10:11:41;;;;;;;10.35;3.87;;;;;;;8.68;41.08;101762.53;1692366;83;21574;-88
2022/02/24 10:17:04;;;;;;;8.73;3.80;;;;;;;8.70;41.14;101786.48;1668571;84;21190;-87
2022/02/24 10:19:39;;;;;;;8.05;3.77;;;;;;;8.56;41.08;101784.39;1668855;84;21163;-87
2022/02/24 10:25:04;;;;;;;12.78;4.65;;;;;;;8.70;42.12;101789.16;1635899;86;21038;-87
2022/02/24 10:27:38;;;;;;;8.78;4.17;;;;;;;8.80;41.17;101789.52;1635603;86;21085;-88
2022/02/24 10:32:52;;;;;;;14.13;5.55;;;;;;;8.58;41.86;101784.48;1557753;92;21052;-87
2022/02/24 10:35:39;;;;;;;8.58;3.85;;;;;;;8.53;42.47;101787.02;1557791;92;21055;-89
2022/02/24 10:38:12;;;;;;;6.80;3.40;;;;;;;8.58;41.96;101787.17;1501637;92;21094;-88
2022/02/24 10:40:42;;;;;;;7.25;3.75;;;;;;;8.46;41.80;101779.51;1525727;94;26609;-87
2022/02/24 10:43:25;;;;;;;8.43;4.03;;;;;;;8.45;41.82;101775.19;1525634;94;21654;-88
2022/02/24 10:46:06;;;;;;;6.70;3.20;;;;;;;8.40;42.04;101775.00;1516607;94;21143;-86
2022/02/24 10:48:52;;;;;;;7.62;3.85;;;;;;;8.48;42.58;101772.59;1522757;93;21141;-87
2022/02/24 10:51:31;;;;;;;6.87;3.52;;;;;;;8.58;42.32;101774.27;1528834;92;21102;-88
2022/02/24 10:54:06;;;;;;;8.25;3.42;;;;;;;8.45;42.20;101773.02;1508427;93;21068;-87
2022/02/24 10:56:36;;;;;;;6.90;3.10;;;;;;;8.44;42.53;101760.09;1462911;96;21290;-87
2022/02/24 10:59:04;;;;;;;10.20;3.10;;;;;;;8.50;42.46;101764.63;1444345;99;21930;-86
2022/02/24 11:01:31;;;;;;;8.65;3.08;;;;;;;8.50;42.78;101764.63;1444154;99;21632;-87
2022/02/24 11:04:04;;;;;;;7.97;3.22;;;;;;;8.37;43.25;101756.08;1444286;99;21116;-88
2022/02/24 11:06:34;;;;;;;6.95;2.98;;;;;;;8.33;42.64;101761.59;1460980;98;27749;-87
2022/02/24 11:09:05;;;;;;;8.90;3.58;;;;;;;8.28;42.94;101763.27;1481667;96;21238;-87
2022/02/24 11:11:35;;;;;;;4.40;2.20;;;;;;;8.19;42.81;101764.86;1481462;96;21690;-86
2022/02/24 11:14:05;;;;;;;4.20;2.35;;;;;;;8.07;42.85;101766.58;1481690;96;21130;-87
2022/02/24 11:16:33;;;;;;;8.33;3.87;;;;;;;7.98;42.95;101758.99;1481709;96;21183;-86
2022/02/24 11:18:59;;;;;;;5.50;2.20;;;;;;;8.01;43.00;101762.59;1481632;96;21132;-83
2022/02/24 11:21:28;;;;;;;3.70;2.05;;;;;;;8.03;43.16;101755.13;1485465;96;21082;-85
2022/02/24 11:23:55;;;;;;;6.28;2.55;;;;;;;8.02;42.81;101754.31;1465566;97;21182;-88